Latest Coastal Weather Observations for Rosslyn Bay Harbour

IDQ60701

Issued at 4:01 am EST Sunday 21 December 2014 (issued every 10 minutes, with the page automatically refreshed every 10 minutes)

About coastal observations | Map of coastal stations | Coastal observations for QLD | Marine services | Other Formats
Station Details ID: 033208 Name: ROSSLYN BAY NTC AWS Lat: -23.16 Lon: 150.79 Height: 0.0 m
Data from the previous 72 hours. | See also: Recent months for locations in Queensland
Date/Time
EST
Temp

°C
Wind Pressure Rain
since 9am
mm
Weather Cloud Vis
km
Sea
Height
m
Swell
Dir
 
Speed
knots
Gust
knots
hPa Trend Height
m
Period
s
Dir
21/04:00am 26.0 N 3 11 1012.5 - - - - - - - - -
21/03:30am 25.9 WSW 4 10 1012.5 - - - - - - - - -
21/03:00am 25.9 WSW 4 9 1012.5 - - - - - - - - -
21/02:30am 25.8 SW 4 9 1012.5 - - - - - - - - -
21/02:00am 25.9 SW 4 9 1012.7 - - - - - - - - -
21/01:30am 25.9 SW 4 11 1013.0 - - - - - - - - -
21/01:00am 25.9 SW 4 9 1013.2 - - - - - - - - -
21/12:30am 26.0 SW 4 11 1013.2 - - - - - - - - -
21/12:00am 26.1 SW 4 11 1013.6 - - - - - - - - -
 
Date/Time
EST
Temp

°C
Wind Pressure Rain
since 9am
mm
Weather Cloud Vis
km
Sea
Height
m
Swell
Dir
 
Speed
knots
Gust
knots
hPa Trend Height
m
Period
s
Dir
20/11:30pm 26.2 W 4 10 1014.0 - - - - - - - - -
20/11:00pm 26.3 WSW 5 10 1014.1 - - - - - - - - -
20/10:30pm 26.2 WSW 4 10 1014.4 - - - - - - - - -
20/10:00pm 26.4 NW 4 11 1014.2 - - - - - - - - -
20/09:30pm 26.4 WSW 4 11 1014.2 - - - - - - - - -
20/09:00pm 26.3 WSW 5 10 1013.8 - - - - - - - - -
20/08:30pm 26.4 W 3 9 1013.4 - - - - - - - - -
20/08:00pm 26.4 NE 4 12 1013.1 - - - - - - - - -
20/07:30pm 26.4 WSW 3 9 1012.9 - - - - - - - - -
20/07:00pm 26.5 WSW 4 10 1012.5 - - - - - - - - -
20/06:30pm 26.7 E 4 8 1012.0 - - - - - - - - -
20/06:00pm 27.0 NE 3 12 1011.8 - - - - - - - - -
20/05:30pm 27.3 ENE 4 11 1011.4 - - - - - - - - -
20/05:00pm 27.5 ENE 4 12 1011.1 - - - - - - - - -
20/04:30pm 27.5 ENE 4 11 1010.9 - - - - - - - - -
20/04:00pm 27.7 ENE 4 11 1010.9 - - - - - - - - -
20/03:30pm 27.6 SW 3 8 1011.2 - - - - - - - - -
20/03:00pm 27.4 W 4 15 1011.4 - - - - - - - - -
20/02:30pm 28.2 S 4 9 1011.8 - - - - - - - - -
20/02:00pm 28.1 S 3 9 1011.8 - - - - - - - - -
20/01:30pm 27.9 S 6 11 1012.1 - - - - - - - - -
20/01:00pm 28.1 SSW 3 8 1012.4 - - - - - - - - -
20/12:30pm 27.7 SW 3 8 1012.8 - - - - - - - - -
20/12:00pm 27.5 WSW 2 7 1013.0 - - - - - - - - -
20/11:30am 28.1 SSW 2 7 1013.4 - - - - - - - - -
20/11:00am 27.7 SSW 2 6 1013.7 - - - - - - - - -
20/10:30am 26.8 S 6 10 1013.9 - - - - - - - - -
20/10:00am 26.7 S 5 8 1013.9 - - - - - - - - -
20/09:30am 26.1 S 6 11 1013.7 - - - - - - - - -
20/09:00am 25.8 S 5 9 1013.5 - - - - - - - - -
20/08:30am 26.0 S 5 8 1013.2 - - - - - - - - -
20/08:00am 25.7 S 3 6 1013.3 - - - - - - - - -
20/07:30am 25.3 S 2 4 1013.0 - - - - - - - - -
20/07:00am 24.3 SSW 2 3 1012.6 - - - - - - - - -
20/06:30am 23.4 SSW 1 2 1012.3 - - - - - - - - -
20/06:00am 23.0 SW 1 1 1011.8 - - - - - - - - -
20/05:30am 22.8 WNW 2 3 1011.3 - - - - - - - - -
20/05:00am 22.8 W 2 3 1010.9 - - - - - - - - -
20/04:30am 22.6 W 2 3 1010.7 - - - - - - - - -
20/04:00am 23.0 W 2 2 1010.5 - - - - - - - - -
20/03:30am 23.4 WNW 2 3 1010.5 - - - - - - - - -
20/03:00am 23.8 W 1 2 1010.6 - - - - - - - - -
20/02:30am 23.9 WSW 1 2 1010.7 - - - - - - - - -
20/02:00am 23.7 SW 1 3 1010.8 - - - - - - - - -
20/01:30am 24.3 WNW 2 3 1011.0 - - - - - - - - -
20/01:00am 24.3 SSW 1 2 1011.1 - - - - - - - - -
20/12:30am 24.4 WSW 2 3 1011.5 - - - - - - - - -
20/12:00am 24.7 WSW 1 3 1012.0 - - - - - - - - -
 
Date/Time
EST
Temp

°C
Wind Pressure Rain
since 9am
mm
Weather Cloud Vis
km
Sea
Height
m
Swell
Dir
 
Speed
knots
Gust
knots
hPa Trend Height
m
Period
s
Dir
19/11:30pm 25.2 W 1 2 1012.3 - - - - - - - - -
19/11:00pm 25.8 NNE 3 4 1012.6 - - - - - - - - -
19/10:30pm 25.9 NNE 3 4 1012.9 - - - - - - - - -
19/10:00pm 25.9 NNE 3 6 1012.9 - - - - - - - - -
19/09:30pm 25.9 NNE 4 6 1012.7 - - - - - - - - -
19/09:00pm 25.9 NNE 2 4 1012.4 - - - - - - - - -
19/08:30pm 25.8 NE 3 4 1012.1 - - - - - - - - -
19/08:00pm 25.9 NE 4 7 1012.0 - - - - - - - - -
19/07:30pm 25.8 ENE 3 6 1011.9 - - - - - - - - -
19/07:00pm 25.9 ENE 5 8 1011.7 - - - - - - - - -
19/06:30pm 25.8 WSW 2 5 1011.4 - - - - - - - - -
19/06:00pm 25.8 SSW 2 6 1011.1 - - - - - - - - -
19/05:30pm 25.7 S 5 8 1010.8 - - - - - - - - -
19/05:00pm 26.3 S 2 5 1010.6 - - - - - - - - -
19/04:30pm 26.1 S 3 5 1010.7 - - - - - - - - -
19/04:00pm 25.7 S 6 8 1010.7 - - - - - - - - -
19/03:30pm 25.8 S 2 5 1010.5 - - - - - - - - -
19/03:00pm 25.7 S 6 10 1010.6 - - - - - - - - -
19/02:30pm 25.2 S 5 10 1011.0 - - - - - - - - -
19/02:00pm 25.2 S 5 9 1011.3 - - - - - - - - -
19/01:30pm 25.3 S 3 7 1011.5 - - - - - - - - -
19/01:00pm 25.5 S 5 9 1011.8 - - - - - - - - -
19/12:30pm 25.6 S 5 12 1011.9 - - - - - - - - -
19/12:00pm 25.6 SSW 5 10 1012.1 - - - - - - - - -
19/11:30am 25.6 S 8 12 1012.3 - - - - - - - - -
19/11:00am 25.4 S 7 11 1012.1 - - - - - - - - -
19/10:30am 26.5 S 5 11 1012.4 - - - - - - - - -
19/10:00am 26.8 S 2 4 1012.0 - - - - - - - - -
19/09:30am 27.1 SSW 2 4 1012.2 - - - - - - - - -
19/09:00am 27.1 S 2 4 1012.0 - - - - - - - - -
19/08:30am 26.7 SSW 3 5 1012.1 - - - - - - - - -
19/08:00am 27.0 NE 2 3 1011.9 - - - - - - - - -
19/07:30am 26.6 WNW 1 3 1011.6 - - - - - - - - -
19/07:00am 26.4 NNE 3 4 1011.2 - - - - - - - - -
19/06:30am 26.1 N 2 3 1011.0 - - - - - - - - -
19/06:00am 25.9 N 3 5 1010.6 - - - - - - - - -
19/05:30am 25.8 N 5 6 1010.5 - - - - - - - - -
19/05:00am 25.8 N 5 6 1010.2 - - - - - - - - -
19/04:30am 25.9 NNW 4 5 1010.1 - - - - - - - - -
19/04:00am 25.9 NNW 5 7 1009.9 - - - - - - - - -
19/03:30am 26.2 N 6 9 1009.8 - - - - - - - - -
19/03:00am 26.4 N 5 8 1010.1 - - - - - - - - -
19/02:30am 26.4 NNW 3 6 1010.3 - - - - - - - - -
19/02:00am 26.0 WNW 3 5 1010.6 - - - - - - - - -
19/01:30am 26.2 WNW 3 5 1010.8 - - - - - - - - -
19/01:00am 26.7 NW 4 7 1011.5 - - - - - - - - -
19/12:30am 26.6 NNW 5 7 1011.7 - - - - - - - - -
19/12:00am 26.2 SW 3 5 1012.5 - - - - - - - - -
 
Date/Time
EST
Temp

°C
Wind Pressure Rain
since 9am
mm
Weather Cloud Vis
km
Sea
Height
m
Swell
Dir
 
Speed
knots
Gust
knots
hPa Trend Height
m
Period
s
Dir
18/11:30pm 26.0 SSW 5 8 1012.7 - - - - - - - - -
18/11:00pm 25.9 SW 4 7 1012.6 - - - - - - - - -
18/10:30pm 26.9 N 7 12 1012.5 - - - - - - - - -
18/10:00pm 27.0 NNE 12 15 1011.0 - - - - - - - - -
18/09:30pm 27.0 NNE 13 16 1010.8 - - - - - - - - -
18/09:00pm 27.1 NNE 13 17 1010.4 - - - - - - - - -
18/08:30pm 27.4 N 13 17 1010.2 - - - - - - - - -
18/08:00pm 27.7 N 10 14 1010.0 - - - - - - - - -
18/07:30pm 27.6 NNE 13 17 1010.0 - - - - - - - - -
18/07:00pm 27.5 NNE 15 20 1009.8 - - - - - - - - -
18/06:30pm 27.4 NNE 15 21 1009.1 - - - - - - - - -
18/06:00pm 27.5 NNE 15 20 1008.8 - - - - - - - - -
18/05:30pm 27.5 NNE 16 22 1008.3 - - - - - - - - -
18/05:00pm 27.5 NNE 16 21 1007.8 - - - - - - - - -
18/04:30pm 27.5 NNE 16 22 1007.6 - - - - - - - - -
18/04:00pm 27.6 NNE 17 25 1007.2 - - - - - - - - -
18/03:30pm 27.7 NNE 17 23 1007.2 - - - - - - - - -
18/03:00pm 27.7 NNE 17 24 1007.7 - - - - - - - - -
18/02:30pm 27.9 NNE 18 25 1008.3 - - - - - - - - -
18/02:00pm 27.7 NNE 17 23 1009.1 - - - - - - - - -
18/01:30pm 27.8 NNE 16 23 1009.4 - - - - - - - - -
18/01:00pm 27.8 NNE 17 24 1009.6 - - - - - - - - -
18/12:30pm 27.7 NNE 16 22 1010.1 - - - - - - - - -
18/12:00pm 27.8 NNE 16 25 1010.1 - - - - - - - - -
18/11:30am 27.7 NNE 14 21 1010.3 - - - - - - - - -
18/11:00am 27.7 NE 14 21 1010.5 - - - - - - - - -
18/10:30am 27.6 NE 15 19 1011.0 - - - - - - - - -
18/10:00am 27.7 ENE 11 15 1011.4 - - - - - - - - -
18/09:30am 28.3 NNE 7 11 1011.3 - - - - - - - - -
18/09:00am 28.1 NNE 8 11 1011.1 - - - - - - - - -
18/08:30am 28.0 N 9 12 1011.1 - - - - - - - - -
18/08:00am 27.4 N 9 12 1011.1 - - - - - - - - -
18/07:30am 26.8 N 9 12 1010.9 - - - - - - - - -
18/07:00am 26.3 N 8 11 1011.2 - - - - - - - - -
18/06:30am 25.7 N 7 11 1011.1 - - - - - - - - -
18/06:00am 25.8 N 6 8 1010.8 - - - - - - - - -
18/05:30am 25.5 NNW 5 7 1010.5 - - - - - - - - -
18/05:00am 25.7 WNW 3 5 1010.3 - - - - - - - - -
18/04:30am 26.7 N 8 11 1009.8 - - - - - - - - -

Other Formats:

Comma delimited format used in spreadsheet applications
http://www.bom.gov.au/fwo/IDQ60701/IDQ60701.95298.axf

JavaScript Object Notation format (JSON) in row-major order
http://www.bom.gov.au/fwo/IDQ60701/IDQ60701.95298.json